createdAt,value
2019-05-02T00:00:41.508Z,1007.98
2019-05-02T00:01:41.461Z,1007.96
2019-05-02T00:02:41.448Z,1007.92
2019-05-02T00:03:42.878Z,1007.98
2019-05-02T00:04:41.438Z,1007.89
2019-05-02T00:05:41.418Z,1007.93
2019-05-02T00:06:42.930Z,1007.90
2019-05-02T00:07:41.398Z,1007.88
2019-05-02T00:08:41.379Z,1007.96
2019-05-02T00:09:47.497Z,1007.92
2019-05-02T00:10:42.371Z,1007.94
2019-05-02T00:11:41.387Z,1007.93
2019-05-02T00:12:41.345Z,1007.92
2019-05-02T00:13:41.334Z,1007.91
2019-05-02T00:14:41.332Z,1007.86
2019-05-02T00:15:41.316Z,1007.89
2019-05-02T00:16:45.119Z,1007.80
2019-05-02T00:17:42.290Z,1007.82
2019-05-02T00:18:41.273Z,1007.80
2019-05-02T00:19:44.980Z,1007.88
2019-05-02T00:20:42.279Z,1007.82
2019-05-02T00:21:43.038Z,1007.85
2019-05-02T00:22:41.249Z,1007.84
2019-05-02T00:23:41.217Z,1007.87
2019-05-02T00:24:41.214Z,1007.81
2019-05-02T00:25:41.203Z,1007.87
2019-05-02T00:26:41.200Z,1007.81
2019-05-02T00:27:41.189Z,1007.86
2019-05-02T00:28:42.878Z,1007.84
2019-05-02T00:29:42.147Z,1007.80
2019-05-02T00:30:41.189Z,1007.80
2019-05-02T00:31:41.830Z,1007.84
2019-05-02T00:32:42.127Z,1007.78
2019-05-02T00:33:41.130Z,1007.86
2019-05-02T00:34:41.109Z,1007.82
2019-05-02T00:35:46.230Z,1007.83
2019-05-02T00:36:42.088Z,1007.88
2019-05-02T00:37:41.085Z,1007.83
2019-05-02T00:38:41.066Z,1007.85
2019-05-02T00:39:45.225Z,1007.85
2019-05-02T00:40:42.048Z,1007.85
2019-05-02T00:41:41.029Z,1007.80
2019-05-02T00:42:41.016Z,1007.77
2019-05-02T00:43:41.014Z,1007.79
2019-05-02T00:44:42.055Z,1007.78
2019-05-02T00:45:41.989Z,1007.82
2019-05-02T00:46:40.976Z,1007.70
2019-05-02T00:47:42.167Z,1007.71
2019-05-02T00:48:41.959Z,1007.75
2019-05-02T00:49:40.947Z,1007.73
2019-05-02T00:50:45.307Z,1007.71
2019-05-02T00:51:41.926Z,1007.70
2019-05-02T00:52:40.927Z,1007.69
2019-05-02T00:53:44.367Z,1007.73
2019-05-02T00:54:41.889Z,1007.70
2019-05-02T00:55:40.878Z,1007.60
2019-05-02T00:56:44.061Z,1007.56
2019-05-02T00:57:40.855Z,1007.62
2019-05-02T00:58:40.858Z,1007.56
2019-05-02T00:59:42.380Z,1007.56
2019-05-02T01:00:40.829Z,1007.52
2019-05-02T01:01:40.805Z,1007.62
2019-05-02T01:02:41.826Z,1007.53
2019-05-02T01:03:40.809Z,1007.40
2019-05-02T01:04:40.785Z,1007.52
2019-05-02T01:05:40.754Z,1007.48
2019-05-02T01:06:40.779Z,1007.48
2019-05-02T01:07:40.748Z,1007.47
2019-05-02T01:08:40.774Z,1007.52
2019-05-02T01:09:42.246Z,1007.52
2019-05-02T01:10:41.745Z,1007.47
2019-05-02T01:11:40.697Z,1007.52
2019-05-02T01:12:44.491Z,1007.50
2019-05-02T01:13:41.677Z,1007.43
2019-05-02T01:14:40.664Z,1007.52
2019-05-02T01:15:44.150Z,1007.51
2019-05-02T01:16:40.694Z,1007.46
2019-05-02T01:17:40.623Z,1007.46
2019-05-02T01:18:41.397Z,1007.51
2019-05-02T01:19:40.633Z,1007.46
2019-05-02T01:20:40.594Z,1007.49
2019-05-02T01:21:40.582Z,1007.58
2019-05-02T01:22:40.589Z,1007.47
2019-05-02T01:23:40.564Z,1007.52
2019-05-02T01:24:41.672Z,1007.55
2019-05-02T01:25:40.545Z,1007.49
2019-05-02T01:26:40.535Z,1007.44
2019-05-02T01:27:41.279Z,1007.43
2019-05-02T01:28:40.521Z,1007.44
2019-05-02T01:29:40.495Z,1007.45
2019-05-02T01:30:42.479Z,1007.46
2019-05-02T01:31:40.485Z,1007.53
2019-05-02T01:32:40.463Z,1007.42
2019-05-02T01:33:41.844Z,1007.43
2019-05-02T01:34:40.453Z,1007.42
2019-05-02T01:35:40.435Z,1007.43
2019-05-02T01:36:41.014Z,1007.43
2019-05-02T01:37:40.402Z,1007.39
2019-05-02T01:38:40.396Z,1007.44
2019-05-02T01:39:42.713Z,1007.38
2019-05-02T01:40:40.402Z,1007.43
2019-05-02T01:41:40.363Z,1007.45
2019-05-02T01:42:44.367Z,1007.40
2019-05-02T01:43:41.353Z,1007.35
2019-05-02T01:44:40.322Z,1007.45
2019-05-02T01:45:41.851Z,1007.35
2019-05-02T01:46:40.321Z,1007.35
2019-05-02T01:47:40.304Z,1007.45
2019-05-02T01:48:45.775Z,1007.34
2019-05-02T01:49:41.270Z,1007.42
2019-05-02T01:50:40.282Z,1007.38
2019-05-02T01:51:41.842Z,1007.37
2019-05-02T01:52:41.232Z,1007.36
2019-05-02T01:53:40.248Z,1007.33
2019-05-02T01:54:40.739Z,1007.35
2019-05-02T01:55:41.213Z,1007.29
2019-05-02T01:56:40.222Z,1007.32
2019-05-02T01:57:44.713Z,1007.28
2019-05-02T01:58:41.161Z,1007.32
2019-05-02T01:59:40.223Z,1007.24
2019-05-02T02:00:40.962Z,1007.26
2019-05-02T02:01:40.142Z,1007.33
2019-05-02T02:02:40.152Z,1007.24
2019-05-02T02:03:40.566Z,1007.27
2019-05-02T02:04:41.100Z,1007.22
2019-05-02T02:05:40.103Z,1007.23
2019-05-02T02:06:43.284Z,1007.20
2019-05-02T02:07:40.073Z,1007.21
2019-05-02T02:08:40.061Z,1007.29
2019-05-02T02:09:43.898Z,1007.20
2019-05-02T02:10:43.715Z,1007.19
2019-05-02T02:11:40.043Z,1007.17
2019-05-02T02:12:41.225Z,1007.20
2019-05-02T02:13:41.026Z,1007.16
2019-05-02T02:14:40.020Z,1007.19
2019-05-02T02:15:40.028Z,1007.22
2019-05-02T02:16:40.601Z,1007.20
2019-05-02T02:17:39.959Z,1007.07
2019-05-02T02:18:39.960Z,1007.11
2019-05-02T02:19:40.714Z,1007.07
2019-05-02T02:20:39.942Z,1007.19
2019-05-02T02:21:42.724Z,1007.08
2019-05-02T02:22:41.083Z,1007.14
2019-05-02T02:23:39.919Z,1007.08
2019-05-02T02:24:39.896Z,1007.03
2019-05-02T02:25:39.892Z,1007.06
2019-05-02T02:26:43.578Z,1007.02
2019-05-02T02:27:40.861Z,1007.11
2019-05-02T02:28:39.859Z,1007.03
2019-05-02T02:29:44.056Z,1007.06
2019-05-02T02:30:40.835Z,1007.06
2019-05-02T02:31:46.257Z,1007.04
2019-05-02T02:32:40.794Z,1007.00
2019-05-02T02:33:40.867Z,1006.99
2019-05-02T02:34:40.778Z,1007.01
2019-05-02T02:35:49.520Z,1006.96
2019-05-02T02:36:40.759Z,1006.99
2019-05-02T02:37:52.136Z,1007.00
2019-05-02T02:38:40.744Z,1006.96
2019-05-02T02:39:39.715Z,1006.98
2019-05-02T02:40:39.701Z,1007.02
2019-05-02T02:41:45.113Z,1006.97
2019-05-02T02:42:40.688Z,1006.93
2019-05-02T02:43:39.679Z,1007.00
2019-05-02T02:44:41.630Z,1006.95
2019-05-02T02:45:39.654Z,1006.95
2019-05-02T02:46:40.204Z,1006.85
2019-05-02T02:47:39.652Z,1006.93
2019-05-02T02:48:40.630Z,1006.98
2019-05-02T02:49:39.601Z,1006.94
2019-05-02T02:50:42.928Z,1006.92
2019-05-02T02:51:40.590Z,1006.94
2019-05-02T02:52:44.807Z,1006.97
2019-05-02T02:53:40.581Z,1006.96
2019-05-02T02:54:43.396Z,1006.89
2019-05-02T02:55:40.537Z,1006.96
2019-05-02T02:56:40.465Z,1006.95
2019-05-02T02:57:39.531Z,1006.88
2019-05-02T02:58:45.788Z,1006.86
2019-05-02T02:59:40.501Z,1006.83
2019-05-02T03:00:41.405Z,1006.84
2019-05-02T03:01:40.477Z,1006.83
2019-05-02T03:02:47.698Z,1006.81
2019-05-02T03:03:40.481Z,1006.86
2019-05-02T03:04:44.237Z,1006.84
2019-05-02T03:05:40.426Z,1006.84
2019-05-02T03:06:45.160Z,1006.85
2019-05-02T03:07:40.420Z,1006.80
2019-05-02T03:08:46.291Z,1006.76
2019-05-02T03:09:40.387Z,1006.81
2019-05-02T03:10:44.777Z,1006.75
2019-05-02T03:11:40.381Z,1006.82
2019-05-02T03:12:41.475Z,1006.84
2019-05-02T03:13:51.520Z,1006.84
2019-05-02T03:14:41.038Z,1006.84
2019-05-02T03:15:40.319Z,1006.83
2019-05-02T03:16:46.019Z,1006.75
2019-05-02T03:17:40.312Z,1006.79
2019-05-02T03:18:40.764Z,1006.74
2019-05-02T03:19:39.298Z,1006.76
2019-05-02T03:20:40.878Z,1006.81
2019-05-02T03:21:39.260Z,1006.74
2019-05-02T03:22:41.949Z,1006.69
2019-05-02T03:23:39.248Z,1006.68
2019-05-02T03:24:44.223Z,1006.62
2019-05-02T03:25:50.723Z,1006.69
2019-05-02T03:26:40.192Z,1006.71
2019-05-02T03:27:40.367Z,1006.69
2019-05-02T03:28:39.188Z,1006.70
2019-05-02T03:29:43.694Z,1006.66
2019-05-02T03:30:40.161Z,1006.78
2019-05-02T03:31:39.148Z,1006.70
2019-05-02T03:32:39.146Z,1006.63
2019-05-02T03:33:51.586Z,1006.65
2019-05-02T03:34:52.970Z,1006.67
2019-05-02T03:35:44.767Z,1006.60
2019-05-02T03:36:40.092Z,1006.62
2019-05-02T03:37:44.830Z,1006.67
2019-05-02T03:38:40.089Z,1006.67
2019-05-02T03:39:39.059Z,1006.63
2019-05-02T03:40:41.310Z,1006.65
2019-05-02T03:41:39.025Z,1006.76
2019-05-02T03:42:44.685Z,1006.67
2019-05-02T03:43:40.038Z,1006.66
2019-05-02T03:44:38.997Z,1006.67
2019-05-02T03:45:40.486Z,1006.67
2019-05-02T03:46:38.985Z,1006.54
2019-05-02T03:47:43.691Z,1006.60
2019-05-02T03:48:39.991Z,1006.60
2019-05-02T03:49:41.028Z,1006.61
2019-05-02T03:50:39.940Z,1006.59
2019-05-02T03:51:38.937Z,1006.59
2019-05-02T03:52:43.460Z,1006.60
2019-05-02T03:53:39.904Z,1006.61
2019-05-02T03:54:48.978Z,1006.60
2019-05-02T03:55:39.875Z,1006.65
2019-05-02T03:56:44.930Z,1006.61
2019-05-02T03:57:42.079Z,1006.66
2019-05-02T03:58:38.851Z,1006.71
2019-05-02T03:59:41.780Z,1006.68
2019-05-02T04:00:38.815Z,1006.62
2019-05-02T04:01:41.394Z,1006.64
2019-05-02T04:02:38.792Z,1006.69
2019-05-02T04:03:40.843Z,1006.70
2019-05-02T04:04:38.783Z,1006.65
2019-05-02T04:05:40.246Z,1006.61
2019-05-02T04:06:38.758Z,1006.62
2019-05-02T04:07:40.847Z,1006.58
2019-05-02T04:08:38.724Z,1006.55
2019-05-02T04:09:41.840Z,1006.60
2019-05-02T04:10:38.738Z,1006.59
2019-05-02T04:11:40.798Z,1006.51
2019-05-02T04:12:38.697Z,1006.52
2019-05-02T04:13:38.695Z,1006.51
2019-05-02T04:14:39.385Z,1006.51
2019-05-02T04:15:38.653Z,1006.59
2019-05-02T04:16:38.657Z,1006.45
2019-05-02T04:17:38.643Z,1006.52
2019-05-02T04:18:38.645Z,1006.57
2019-05-02T04:19:38.607Z,1006.53
2019-05-02T04:20:43.678Z,1006.49
2019-05-02T04:21:39.626Z,1006.53
2019-05-02T04:22:42.670Z,1006.51
2019-05-02T04:23:39.581Z,1006.52
2019-05-02T04:24:38.563Z,1006.52
2019-05-02T04:25:38.543Z,1006.42
2019-05-02T04:26:38.554Z,1006.54
2019-05-02T04:27:38.522Z,1006.48
2019-05-02T04:28:38.532Z,1006.52
2019-05-02T04:29:38.506Z,1006.54
2019-05-02T04:30:38.491Z,1006.45
2019-05-02T04:31:38.489Z,1006.47
2019-05-02T04:32:42.507Z,1006.43
2019-05-02T04:33:38.463Z,1006.51
2019-05-02T04:34:38.477Z,1006.43
2019-05-02T04:35:38.451Z,1006.45
2019-05-02T04:36:38.444Z,1006.40
2019-05-02T04:37:40.991Z,1006.41
2019-05-02T04:38:47.056Z,1006.49
2019-05-02T04:39:39.450Z,1006.38
2019-05-02T04:40:41.725Z,1006.46
2019-05-02T04:41:42.392Z,1006.35
2019-05-02T04:42:39.262Z,1006.40
2019-05-02T04:43:43.066Z,1006.42
2019-05-02T04:44:52.709Z,1006.45
2019-05-02T04:45:52.828Z,1006.33
2019-05-02T04:46:39.330Z,1006.37
2019-05-02T04:47:39.513Z,1006.36
2019-05-02T04:48:43.877Z,1006.35
2019-05-02T04:49:39.497Z,1006.23
2019-05-02T04:50:38.272Z,1006.35
2019-05-02T04:51:38.421Z,1006.24
2019-05-02T04:52:47.247Z,1006.29
2019-05-02T04:53:44.354Z,1006.35
2019-05-02T04:54:39.281Z,1006.32
2019-05-02T04:55:38.287Z,1006.28
2019-05-02T04:56:42.244Z,1006.31
2019-05-02T04:57:46.824Z,1006.39
2019-05-02T04:58:40.604Z,1006.35
2019-05-02T04:59:39.446Z,1006.33
2019-05-02T05:00:39.249Z,1006.36
2019-05-02T05:01:43.398Z,1006.45
2019-05-02T05:02:40.009Z,1006.40
2019-05-02T05:03:38.150Z,1006.42
2019-05-02T05:04:46.107Z,1006.35
2019-05-02T05:05:40.351Z,1006.35
2019-05-02T05:06:40.752Z,1006.37
2019-05-02T05:07:43.685Z,1006.41
2019-05-02T05:08:41.745Z,1006.31
2019-05-02T05:09:40.050Z,1006.39
2019-05-02T05:10:41.482Z,1006.36
2019-05-02T05:11:39.089Z,1006.30
2019-05-02T05:12:41.774Z,1006.35
2019-05-02T05:13:38.041Z,1006.35
2019-05-02T05:14:42.850Z,1006.29
2019-05-02T05:15:48.517Z,1006.27
2019-05-02T05:16:40.075Z,1006.33
2019-05-02T05:17:37.984Z,1006.31
2019-05-02T05:18:38.006Z,1006.35
2019-05-02T05:19:37.985Z,1006.38
2019-05-02T05:20:40.379Z,1006.33
2019-05-02T05:21:37.940Z,1006.35
2019-05-02T05:22:44.213Z,1006.38
2019-05-02T05:23:38.919Z,1006.34
2019-05-02T05:24:42.114Z,1006.34
2019-05-02T05:25:38.095Z,1006.39
2019-05-02T05:26:40.985Z,1006.35
2019-05-02T05:27:37.868Z,1006.47
2019-05-02T05:28:40.459Z,1006.40
2019-05-02T05:29:38.844Z,1006.40
2019-05-02T05:30:45.032Z,1006.42
2019-05-02T05:31:38.829Z,1006.41
2019-05-02T05:32:37.795Z,1006.46
2019-05-02T05:33:37.889Z,1006.37
2019-05-02T05:34:38.023Z,1006.33
2019-05-02T05:35:38.528Z,1006.35
2019-05-02T05:36:37.756Z,1006.40
2019-05-02T05:37:38.187Z,1006.33
2019-05-02T05:38:40.461Z,1006.34
2019-05-02T05:39:38.207Z,1006.35
2019-05-02T05:40:37.722Z,1006.43
2019-05-02T05:41:37.946Z,1006.40
2019-05-02T05:42:38.256Z,1006.34
2019-05-02T05:43:38.140Z,1006.36
2019-05-02T05:44:39.894Z,1006.34
2019-05-02T05:45:48.775Z,1006.29
2019-05-02T05:46:42.407Z,1006.42
2019-05-02T05:47:37.866Z,1006.29
2019-05-02T05:48:40.773Z,1006.31
2019-05-02T05:49:37.669Z,1006.34
2019-05-02T05:50:41.264Z,1006.36
2019-05-02T05:51:37.605Z,1006.27
2019-05-02T05:52:38.752Z,1006.21
2019-05-02T05:53:37.661Z,1006.32
2019-05-02T05:54:40.503Z,1006.27
2019-05-02T05:55:38.314Z,1006.34
2019-05-02T05:56:42.862Z,1006.27
2019-05-02T05:57:38.600Z,1006.25
2019-05-02T05:58:39.994Z,1006.30
2019-05-02T05:59:38.516Z,1006.24
2019-05-02T06:00:38.008Z,1006.31
2019-05-02T06:01:38.598Z,1006.36
2019-05-02T06:02:50.853Z,1006.24
2019-05-02T06:03:43.846Z,1006.26
2019-05-02T06:04:39.405Z,1006.28
2019-05-02T06:05:38.437Z,1006.34
2019-05-02T06:06:37.818Z,1006.22
2019-05-02T06:07:41.845Z,1006.27
2019-05-02T06:08:38.605Z,1006.27
2019-05-02T06:09:37.406Z,1006.23
2019-05-02T06:10:39.017Z,1006.21
2019-05-02T06:11:38.688Z,1006.29
2019-05-02T06:12:37.369Z,1006.20
2019-05-02T06:13:38.194Z,1006.30
2019-05-02T06:14:37.493Z,1006.21
2019-05-02T06:15:39.076Z,1006.22
2019-05-02T06:16:37.334Z,1006.23
2019-05-02T06:17:37.303Z,1006.12
2019-05-02T06:18:41.733Z,1006.14
2019-05-02T06:19:38.283Z,1006.17
2019-05-02T06:20:37.307Z,1006.20
2019-05-02T06:21:40.085Z,1006.21
2019-05-02T06:22:38.252Z,1006.23
2019-05-02T06:23:41.086Z,1006.29
2019-05-02T06:24:37.236Z,1006.22
2019-05-02T06:25:37.224Z,1006.15
2019-05-02T06:26:37.222Z,1006.21
2019-05-02T06:27:37.201Z,1006.12
2019-05-02T06:28:41.748Z,1006.18
2019-05-02T06:29:38.171Z,1006.14
2019-05-02T06:30:37.163Z,1006.19
2019-05-02T06:31:38.134Z,1006.18
2019-05-02T06:32:38.332Z,1006.17
2019-05-02T06:33:37.146Z,1006.15
2019-05-02T06:34:38.759Z,1006.16
2019-05-02T06:35:38.105Z,1006.16
2019-05-02T06:36:38.086Z,1006.16
2019-05-02T06:37:37.115Z,1006.18
2019-05-02T06:38:37.074Z,1006.17
2019-05-02T06:39:37.061Z,1006.14
2019-05-02T06:40:39.289Z,1006.14
2019-05-02T06:41:38.044Z,1006.13
2019-05-02T06:42:38.061Z,1006.09
2019-05-02T06:43:41.355Z,1006.15
2019-05-02T06:44:38.061Z,1006.06
2019-05-02T06:45:37.604Z,1006.07
2019-05-02T06:46:37.110Z,1006.05
2019-05-02T06:47:41.685Z,1006.04
2019-05-02T06:48:37.969Z,1006.00
2019-05-02T06:49:36.970Z,1006.04
2019-05-02T06:50:39.006Z,1006.04
2019-05-02T06:51:36.935Z,1005.97
2019-05-02T06:52:36.922Z,1005.99
2019-05-02T06:53:41.251Z,1005.97
2019-05-02T06:54:37.902Z,1006.01
2019-05-02T06:55:38.723Z,1006.01
2019-05-02T06:56:36.870Z,1005.95
2019-05-02T06:57:36.870Z,1005.93
2019-05-02T06:58:37.126Z,1005.84
2019-05-02T06:59:36.848Z,1005.87
2019-05-02T07:00:55.252Z,1005.89
2019-05-02T07:01:37.832Z,1005.88
2019-05-02T07:02:36.836Z,1005.91
2019-05-02T07:03:41.315Z,1005.90
2019-05-02T07:04:37.804Z,1005.81
2019-05-02T07:05:36.779Z,1005.84
2019-05-02T07:06:56.092Z,1005.84
2019-05-02T07:07:37.908Z,1005.82
2019-05-02T07:08:36.769Z,1005.84
2019-05-02T07:09:40.703Z,1005.81
2019-05-02T07:10:44.353Z,1005.87
2019-05-02T07:11:38.749Z,1005.82
2019-05-02T07:12:36.707Z,1005.80
2019-05-02T07:13:41.880Z,1005.81
2019-05-02T07:14:37.692Z,1005.73
2019-05-02T07:15:38.420Z,1005.71
2019-05-02T07:16:38.973Z,1005.79
2019-05-02T07:17:38.406Z,1005.83
2019-05-02T07:18:36.639Z,1005.77
2019-05-02T07:19:36.628Z,1005.87
2019-05-02T07:20:40.704Z,1005.85
2019-05-02T07:21:37.609Z,1005.75
2019-05-02T07:22:38.794Z,1005.86
2019-05-02T07:23:36.584Z,1005.86
2019-05-02T07:24:36.579Z,1005.89
2019-05-02T07:25:39.161Z,1005.85
2019-05-02T07:26:36.548Z,1005.80
2019-05-02T07:27:38.926Z,1005.79
2019-05-02T07:28:40.174Z,1005.76
2019-05-02T07:29:37.520Z,1005.79
2019-05-02T07:30:36.521Z,1005.71
2019-05-02T07:31:36.506Z,1005.71
2019-05-02T07:32:36.477Z,1005.74
2019-05-02T07:33:37.563Z,1005.71
2019-05-02T07:34:36.549Z,1005.75
2019-05-02T07:35:36.451Z,1005.71
2019-05-02T07:36:38.316Z,1005.77
2019-05-02T07:37:36.430Z,1005.68
2019-05-02T07:38:36.427Z,1005.73
2019-05-02T07:39:40.892Z,1005.77
2019-05-02T07:40:37.409Z,1005.76
2019-05-02T07:41:37.271Z,1005.73
2019-05-02T07:42:36.863Z,1005.72
2019-05-02T07:43:37.360Z,1005.70
2019-05-02T07:44:36.348Z,1005.72
2019-05-02T07:45:40.329Z,1005.72
2019-05-02T07:46:50.702Z,1005.75
2019-05-02T07:47:40.120Z,1005.68
2019-05-02T07:48:36.340Z,1005.75
2019-05-02T07:49:36.289Z,1005.81
2019-05-02T07:50:36.278Z,1005.78
2019-05-02T07:51:36.269Z,1005.84
2019-05-02T07:52:36.286Z,1005.75
2019-05-02T07:53:36.275Z,1005.72
2019-05-02T07:54:36.241Z,1005.67
2019-05-02T07:55:40.762Z,1005.81
2019-05-02T07:56:37.217Z,1005.74
2019-05-02T07:57:36.219Z,1005.79
2019-05-02T07:58:38.491Z,1005.77
2019-05-02T07:59:37.190Z,1005.83
2019-05-02T08:00:37.206Z,1005.76
2019-05-02T08:01:36.166Z,1005.81
2019-05-02T08:02:36.156Z,1005.77
2019-05-02T08:03:36.159Z,1005.76
2019-05-02T08:04:36.139Z,1005.83
2019-05-02T08:05:36.118Z,1005.81
2019-05-02T08:06:40.232Z,1005.75
2019-05-02T08:07:37.124Z,1005.75
2019-05-02T08:08:36.479Z,1005.76
2019-05-02T08:09:39.212Z,1005.76
2019-05-02T08:10:37.068Z,1005.69
2019-05-02T08:11:37.136Z,1005.74
2019-05-02T08:12:36.049Z,1005.69
2019-05-02T08:13:36.035Z,1005.73
2019-05-02T08:14:36.414Z,1005.71
2019-05-02T08:15:36.014Z,1005.71
2019-05-02T08:16:35.999Z,1005.75
2019-05-02T08:17:35.998Z,1005.76
2019-05-02T08:18:35.975Z,1005.72
2019-05-02T08:19:37.591Z,1005.75
2019-05-02T08:20:36.945Z,1005.76
2019-05-02T08:21:35.949Z,1005.77
2019-05-02T08:22:35.947Z,1005.78
2019-05-02T08:23:35.930Z,1005.70
2019-05-02T08:24:37.964Z,1005.78
2019-05-02T08:25:35.920Z,1005.74
2019-05-02T08:26:35.890Z,1005.74
2019-05-02T08:27:36.706Z,1005.76
2019-05-02T08:28:35.874Z,1005.80
2019-05-02T08:29:35.864Z,1005.68
2019-05-02T08:30:40.548Z,1005.72
2019-05-02T08:31:36.825Z,1005.77
2019-05-02T08:32:35.830Z,1005.73
2019-05-02T08:33:35.966Z,1005.79
2019-05-02T08:34:35.808Z,1005.80
2019-05-02T08:35:35.808Z,1005.71
2019-05-02T08:36:35.766Z,1005.78
2019-05-02T08:37:41.189Z,1005.76
2019-05-02T08:38:36.756Z,1005.79
2019-05-02T08:39:35.737Z,1005.85
2019-05-02T08:40:35.736Z,1005.82
2019-05-02T08:41:35.730Z,1005.82
2019-05-02T08:42:35.717Z,1005.81
2019-05-02T08:43:40.017Z,1005.74
2019-05-02T08:44:49.951Z,1005.71
2019-05-02T08:45:38.132Z,1005.72
2019-05-02T08:46:35.668Z,1005.75
2019-05-02T08:47:35.681Z,1005.85
2019-05-02T08:48:36.375Z,1005.83
2019-05-02T08:49:36.635Z,1005.79
2019-05-02T08:50:35.636Z,1005.81
2019-05-02T08:51:35.627Z,1005.93
2019-05-02T08:52:36.867Z,1005.87
2019-05-02T08:53:36.597Z,1005.80
2019-05-02T08:54:35.593Z,1005.76
2019-05-02T08:55:35.596Z,1005.77
2019-05-02T08:56:35.589Z,1005.78
2019-05-02T08:57:36.334Z,1005.70
2019-05-02T08:58:35.537Z,1005.86
2019-05-02T08:59:35.546Z,1005.78
2019-05-02T09:00:37.446Z,1005.74
2019-05-02T09:01:35.687Z,1005.76
2019-05-02T09:02:41.538Z,1005.74
2019-05-02T09:03:54.808Z,1005.74
2019-05-02T09:04:36.496Z,1005.77
2019-05-02T09:05:36.960Z,1005.79
2019-05-02T09:06:36.476Z,1005.73
2019-05-02T09:07:37.023Z,1005.74
2019-05-02T09:08:35.424Z,1005.66
2019-05-02T09:09:35.417Z,1005.74
2019-05-02T09:10:37.089Z,1005.76
2019-05-02T09:11:36.406Z,1005.73
2019-05-02T09:12:36.841Z,1005.77
2019-05-02T09:13:36.376Z,1005.80
2019-05-02T09:14:35.378Z,1005.69
2019-05-02T09:15:39.872Z,1005.68
2019-05-02T09:16:36.355Z,1005.70
2019-05-02T09:17:38.731Z,1005.71
2019-05-02T09:18:40.587Z,1005.71
2019-05-02T09:19:36.312Z,1005.68
2019-05-02T09:20:35.294Z,1005.77
2019-05-02T09:21:36.097Z,1005.61
2019-05-02T09:22:35.276Z,1005.68
2019-05-02T09:23:37.097Z,1005.64
2019-05-02T09:24:35.256Z,1005.62
2019-05-02T09:25:35.256Z,1005.69
2019-05-02T09:26:38.627Z,1005.61
2019-05-02T09:27:35.226Z,1005.66
2019-05-02T09:28:35.206Z,1005.59
2019-05-02T09:29:37.293Z,1005.59
2019-05-02T09:30:36.197Z,1005.58
2019-05-02T09:31:36.835Z,1005.54
2019-05-02T09:32:37.235Z,1005.61
2019-05-02T09:33:36.767Z,1005.56
2019-05-02T09:34:36.147Z,1005.51
2019-05-02T09:35:35.133Z,1005.51
2019-05-02T09:36:38.095Z,1005.49
2019-05-02T09:37:35.103Z,1005.44
2019-05-02T09:38:35.106Z,1005.48
2019-05-02T09:39:36.647Z,1005.50
2019-05-02T09:40:35.074Z,1005.43
2019-05-02T09:41:36.377Z,1005.41
2019-05-02T09:42:35.043Z,1005.40
2019-05-02T09:43:39.048Z,1005.49
2019-05-02T09:44:35.056Z,1005.34
2019-05-02T09:45:37.301Z,1005.36
2019-05-02T09:46:35.016Z,1005.34
2019-05-02T09:47:52.613Z,1005.33
2019-05-02T09:48:35.986Z,1005.34
2019-05-02T09:49:35.134Z,1005.30
2019-05-02T09:50:38.094Z,1005.34
2019-05-02T09:51:34.965Z,1005.31
2019-05-02T09:52:39.556Z,1005.26
2019-05-02T09:53:35.926Z,1005.20
2019-05-02T09:54:36.927Z,1005.24
2019-05-02T09:55:35.914Z,1005.17
2019-05-02T09:56:34.903Z,1005.20
2019-05-02T09:57:34.886Z,1005.13
2019-05-02T09:58:34.885Z,1005.16
2019-05-02T09:59:34.906Z,1005.18
2019-05-02T10:00:36.356Z,1005.18
2019-05-02T10:01:34.864Z,1005.14
2019-05-02T10:02:34.824Z,1005.11
2019-05-02T10:03:34.832Z,1005.18
2019-05-02T10:04:34.827Z,1005.13
2019-05-02T10:05:34.798Z,1005.16
2019-05-02T10:06:34.797Z,1005.03
2019-05-02T10:07:34.783Z,1005.08
2019-05-02T10:08:38.212Z,1005.04
2019-05-02T10:09:35.763Z,1005.01
2019-05-02T10:10:37.137Z,1005.01
2019-05-02T10:11:35.751Z,1005.06
2019-05-02T10:12:34.725Z,1005.02
2019-05-02T10:13:34.726Z,1004.97
2019-05-02T10:14:34.702Z,1004.95
2019-05-02T10:15:34.718Z,1004.92
2019-05-02T10:16:34.714Z,1004.92
2019-05-02T10:17:37.557Z,1004.93
2019-05-02T10:18:35.660Z,1004.93
2019-05-02T10:19:34.653Z,1004.91
2019-05-02T10:20:36.370Z,1005.00
2019-05-02T10:21:34.636Z,1004.95
2019-05-02T10:22:39.462Z,1004.88
2019-05-02T10:23:35.603Z,1004.92
2019-05-02T10:24:34.593Z,1004.95
2019-05-02T10:25:38.423Z,1004.84
2019-05-02T10:26:35.575Z,1004.86
2019-05-02T10:27:38.478Z,1004.78
2019-05-02T10:28:35.562Z,1004.83
2019-05-02T10:29:34.536Z,1004.82
2019-05-02T10:30:36.077Z,1004.81
2019-05-02T10:31:37.706Z,1004.74
2019-05-02T10:32:34.521Z,1004.80
2019-05-02T10:33:37.566Z,1004.82
2019-05-02T10:34:34.485Z,1004.82
2019-05-02T10:35:40.407Z,1004.73
2019-05-02T10:36:35.497Z,1004.68
2019-05-02T10:37:38.203Z,1004.74
2019-05-02T10:38:35.445Z,1004.60
2019-05-02T10:39:37.815Z,1004.71
2019-05-02T10:40:34.412Z,1004.64
2019-05-02T10:41:39.609Z,1004.67
2019-05-02T10:42:35.405Z,1004.59
2019-05-02T10:43:34.372Z,1004.62
2019-05-02T10:44:36.431Z,1004.65
2019-05-02T10:45:34.372Z,1004.54
2019-05-02T10:46:37.687Z,1004.48
2019-05-02T10:47:36.336Z,1004.50
2019-05-02T10:48:34.325Z,1004.45
2019-05-02T10:49:34.324Z,1004.56
2019-05-02T10:50:34.318Z,1004.45
2019-05-02T10:51:34.304Z,1004.44
2019-05-02T10:52:34.417Z,1004.44
2019-05-02T10:53:34.292Z,1004.45
2019-05-02T10:54:37.465Z,1004.43
2019-05-02T10:55:34.265Z,1004.39
2019-05-02T10:56:34.231Z,1004.49
2019-05-02T10:57:34.234Z,1004.37
2019-05-02T10:58:35.668Z,1004.42
2019-05-02T10:59:34.221Z,1004.36
2019-05-02T11:00:34.203Z,1004.34
2019-05-02T11:01:34.201Z,1004.30
2019-05-02T11:02:34.173Z,1004.31
2019-05-02T11:03:37.956Z,1004.39
2019-05-02T11:04:35.155Z,1004.30
2019-05-02T11:05:37.080Z,1004.37
2019-05-02T11:06:37.173Z,1004.30
2019-05-02T11:07:35.184Z,1004.33
2019-05-02T11:08:36.842Z,1004.28
2019-05-02T11:09:35.104Z,1004.34
2019-05-02T11:10:34.094Z,1004.25
2019-05-02T11:11:34.084Z,1004.24
2019-05-02T11:12:41.898Z,1004.17
2019-05-02T11:13:35.062Z,1004.15
2019-05-02T11:14:34.042Z,1004.24
2019-05-02T11:15:34.043Z,1004.20
2019-05-02T11:16:34.021Z,1004.18
2019-05-02T11:17:36.384Z,1004.23
2019-05-02T11:18:42.012Z,1004.15
2019-05-02T11:19:34.993Z,1004.16
2019-05-02T11:20:33.994Z,1004.09
2019-05-02T11:21:33.963Z,1004.09
2019-05-02T11:22:33.971Z,1004.09
2019-05-02T11:23:33.976Z,1004.14
2019-05-02T11:24:33.943Z,1004.06
2019-05-02T11:25:33.930Z,1004.05
2019-05-02T11:26:33.914Z,1004.02
2019-05-02T11:27:33.891Z,1003.97
2019-05-02T11:28:33.902Z,1003.98
2019-05-02T11:29:33.901Z,1004.03
2019-05-02T11:30:33.861Z,1004.03
2019-05-02T11:31:33.872Z,1004.00
2019-05-02T11:32:33.841Z,1003.96
2019-05-02T11:33:33.834Z,1004.00
2019-05-02T11:34:33.821Z,1003.90
2019-05-02T11:35:33.823Z,1004.04
2019-05-02T11:36:33.803Z,1004.00
2019-05-02T11:37:33.787Z,1004.00
2019-05-02T11:38:34.140Z,1003.95
2019-05-02T11:39:43.695Z,1003.92
2019-05-02T11:40:34.783Z,1003.91
2019-05-02T11:41:33.741Z,1003.91
2019-05-02T11:42:33.734Z,1003.97
2019-05-02T11:43:37.069Z,1003.88
2019-05-02T11:44:34.712Z,1003.90
2019-05-02T11:45:33.721Z,1003.83
2019-05-02T11:46:37.539Z,1003.83
2019-05-02T11:47:34.684Z,1003.87
2019-05-02T11:48:33.675Z,1003.89
2019-05-02T11:49:33.652Z,1003.82
2019-05-02T11:50:35.422Z,1003.72
2019-05-02T11:51:33.644Z,1003.88
2019-05-02T11:52:37.324Z,1003.77
2019-05-02T11:53:33.625Z,1003.75
2019-05-02T11:54:33.634Z,1003.72
2019-05-02T11:55:33.594Z,1003.68
2019-05-02T11:56:33.604Z,1003.71
2019-05-02T11:57:33.589Z,1003.80
2019-05-02T11:58:33.561Z,1003.77
2019-05-02T11:59:33.563Z,1003.74
2019-05-02T12:00:33.544Z,1003.73
2019-05-02T12:01:37.101Z,1003.92
2019-05-02T12:02:34.512Z,1003.73
2019-05-02T12:03:36.835Z,1003.76
2019-05-02T12:04:33.482Z,1003.79
2019-05-02T12:05:35.683Z,1003.87